Gages Lake, Illinois
Current Conditions -  °F | °C
As of 12:55 PM on Tuesday 21 Oct 2014 (Local Time) from KUGN Reporting Station
Overcast Overcast  
Wind Chill: 44°   Ceiling: 2300
Heat Index: 48°   Visibility: 10mi
Dew Point: 39°   Wind: 9mph
Humidity: 71%   Direction: 350°N
Pressure: 30.19"   Gusts: NA
Location:  42.3279°N, 88.0546°W
Report Text: KUGN 211755Z 35008KT 10SM OVC023 09/04 A3019 RMK AO2 SLP226 T00890039 10094 20072 51008
Loading
Personal Weather Stations






























Interactive Weather Map
Tropical Storm Tracking
New forecast layout! Learn more

10-Day Weather Forecast

Advertisements
Track Severe Weather on mobile